Time;durP1;ratioP1;P1;durP2;ratioP2;P2;SDS_P1;SDS_P2;PMS_P1;PMS_P2;Temp;Humidity;BMP_temperature;BMP_pressure;BME280_temperature;BME280_humidity;BME280_pressure;Samples;Min_cycle;Max_cycle;Signal;HPM_P1;HPM_P2
2022/03/17 00:00:07;;;;;;;;;;;;;;;26.63;61.42;97792.70;619763;229;67036;-72
2022/03/17 00:02:35;;;;;;;;;;;;;;;26.62;62.46;97788.39;619640;228;64379;-72
2022/03/17 00:05:03;;;;;;;;;;;;;;;26.62;61.42;97788.39;619703;229;65309;-72
2022/03/17 00:07:30;;;;;;;;;;;;;;;26.60;60.99;97787.90;619715;229;68008;-72
2022/03/17 00:09:58;;;;;;;;;;;;;;;26.60;61.67;97790.59;619727;229;66849;-72
2022/03/17 00:12:26;;;;;;;;;;;;;;;26.60;60.83;97787.08;619806;229;65123;-72
2022/03/17 00:14:54;;;;;;;;;;;;;;;26.60;61.06;97795.16;619712;229;66831;-72
2022/03/17 00:17:22;;;;;;;;;;;;;;;26.61;60.64;97799.48;619715;229;66939;-72
2022/03/17 00:19:49;;;;;;;;;;;;;;;26.58;60.27;97800.86;619687;229;65116;-72
2022/03/17 00:22:18;;;;;;;;;;;;;;;26.57;61.80;97796.54;619729;229;67311;-73
2022/03/17 00:24:46;;;;;;;;;;;;;;;26.56;61.94;97801.13;619706;229;67310;-72
2022/03/17 00:27:13;;;;;;;;;;;;;;;26.56;59.98;97806.52;619764;229;65447;-72
2022/03/17 00:29:41;;;;;;;;;;;;;;;26.55;60.77;97807.63;619747;229;67047;-72
2022/03/17 00:32:09;;;;;;;;;;;;;;;26.54;60.66;97800.61;619708;229;66842;-72
2022/03/17 00:37:25;;;;;;;;;;;;;;;26.54;60.86;97802.51;619769;229;67166;-72
2022/03/17 00:39:52;;;;;;;;;;;;;;;26.53;61.78;97804.41;619784;229;67091;-72
2022/03/17 00:42:20;;;;;;;;;;;;;;;26.52;62.04;97805.51;619757;229;65143;-72
2022/03/17 00:44:48;;;;;;;;;;;;;;;26.51;61.87;97803.09;619714;229;67249;-71
2022/03/17 00:47:16;;;;;;;;;;;;;;;26.50;61.18;97804.95;619761;229;67040;-72
2022/03/17 00:49:43;;;;;;;;;;;;;;;26.49;62.39;97797.15;619729;229;65227;-72
2022/03/17 00:52:11;;;;;;;;;;;;;;;26.48;61.80;97799.05;619800;229;67039;-72
2022/03/17 00:54:40;;;;;;;;;;;;;;;26.47;61.40;97797.45;619837;229;64904;-72
2022/03/17 00:57:08;;;;;;;;;;;;;;;26.47;62.00;97788.56;619745;229;65267;-72
2022/03/17 00:59:40;;;;;;;;;;;;;;;26.47;62.05;97785.88;619730;229;66998;-72
2022/03/17 01:02:08;;;;;;;;;;;;;;;26.47;60.74;97789.37;619771;229;64655;-72
2022/03/17 01:04:35;;;;;;;;;;;;;;;26.47;61.97;97785.88;619739;229;65411;-72
2022/03/17 01:07:03;;;;;;;;;;;;;;;26.45;62.18;97788.05;619806;229;67060;-72
2022/03/17 01:09:30;;;;;;;;;;;;;;;26.43;61.67;97780.23;619703;229;67317;-72
2022/03/17 01:11:58;;;;;;;;;;;;;;;26.43;62.01;97779.44;619728;229;65296;-72
2022/03/17 01:14:25;;;;;;;;;;;;;;;26.43;62.02;97785.63;619730;229;67038;-72
2022/03/17 01:16:53;;;;;;;;;;;;;;;26.42;62.20;97783.23;619771;229;66992;-72
2022/03/17 01:19:21;;;;;;;;;;;;;;;26.41;62.28;97792.39;619785;229;65316;-72
2022/03/17 01:21:49;;;;;;;;;;;;;;;26.40;61.47;97788.11;619736;229;67072;-72
2022/03/17 01:24:17;;;;;;;;;;;;;;;26.40;62.19;97793.49;619721;229;67141;-72
2022/03/17 01:26:45;;;;;;;;;;;;;;;26.39;61.99;97794.59;619761;229;65191;-72
2022/03/17 01:29:13;;;;;;;;;;;;;;;26.39;62.01;97802.68;619747;229;66811;-72
2022/03/17 01:31:41;;;;;;;;;;;;;;;26.38;61.77;97803.75;619816;229;66863;-72
2022/03/17 01:34:08;;;;;;;;;;;;;;;26.37;61.55;97802.16;619786;229;65379;-72
2022/03/17 01:36:35;;;;;;;;;;;;;;;26.36;61.82;97809.45;619749;229;67295;-72
2022/03/17 01:39:03;;;;;;;;;;;;;;;26.35;61.60;97816.73;619682;229;66897;-72
2022/03/17 01:41:31;;;;;;;;;;;;;;;26.35;62.84;97815.91;619736;229;65330;-72
2022/03/17 01:43:58;;;;;;;;;;;;;;;26.33;62.52;97818.91;619729;229;67068;-72
2022/03/17 01:46:26;;;;;;;;;;;;;;;26.33;62.77;97828.88;619768;229;67833;-72
2022/03/17 01:48:54;;;;;;;;;;;;;;;26.32;61.81;97835.34;619671;229;65418;-72
2022/03/17 01:51:21;;;;;;;;;;;;;;;26.31;62.07;97831.85;619707;229;67100;-72
2022/03/17 01:53:49;;;;;;;;;;;;;;;26.30;61.87;97840.20;619755;229;66867;-72
2022/03/17 01:56:17;;;;;;;;;;;;;;;26.30;62.27;97834.82;619778;229;65401;-72
2022/03/17 01:58:45;;;;;;;;;;;;;;;26.30;61.93;97842.91;619714;229;64894;-72
2022/03/17 02:01:12;;;;;;;;;;;;;;;26.30;60.66;97837.52;619747;229;64889;-72
2022/03/17 02:03:43;;;;;;;;;;;;;;;26.29;62.10;97846.70;619778;228;43891;-73
2022/03/17 02:06:11;;;;;;;;;;;;;;;26.28;61.38;97847.80;619726;229;64849;-73
2022/03/17 02:08:38;;;;;;;;;;;;;;;26.28;61.62;97855.88;619804;229;64773;-72
2022/03/17 02:13:51;;;;;;;;;;;;;;;26.24;61.26;97857.52;619777;229;67047;-73
2022/03/17 02:16:19;;;;;;;;;;;;;;;26.25;62.59;97859.95;619802;229;66335;-74
2022/03/17 02:18:47;;;;;;;;;;;;;;;26.25;62.71;97864.53;619751;229;65100;-71
2022/03/17 02:21:14;;;;;;;;;;;;;;;26.22;62.95;97870.47;619768;229;65597;-71
2022/03/17 02:26:22;;;;;;;;;;;;;;;26.20;62.74;97867.28;612352;231;63143;-72
2022/03/17 02:28:49;;;;;;;;;;;;;;;26.20;62.29;97875.36;619751;229;66898;-72
2022/03/17 02:31:17;;;;;;;;;;;;;;;26.20;62.06;97881.55;619776;229;66613;-72
2022/03/17 02:33:44;;;;;;;;;;;;;;;26.20;62.40;97876.16;619767;229;64326;-72
2022/03/17 02:36:12;;;;;;;;;;;;;;;26.18;62.71;97874.83;619809;229;64523;-72
2022/03/17 02:38:40;;;;;;;;;;;;;;;26.18;62.42;97885.61;619711;229;64818;-72
2022/03/17 02:41:08;;;;;;;;;;;;;;;26.16;61.30;97890.47;619785;229;65611;-72
2022/03/17 02:43:37;;;;;;;;;;;;;;;26.15;62.15;97880.80;619744;229;66690;-72
2022/03/17 02:46:04;;;;;;;;;;;;;;;26.15;62.42;97886.98;619724;229;66963;-72
2022/03/17 02:48:33;;;;;;;;;;;;;;;26.14;62.03;97885.38;619762;229;65189;-72
2022/03/17 02:51:01;;;;;;;;;;;;;;;26.13;62.86;97894.53;619774;229;67450;-73
2022/03/17 02:53:28;;;;;;;;;;;;;;;26.12;62.29;97892.94;619765;229;67806;-73
2022/03/17 02:55:55;;;;;;;;;;;;;;;26.12;63.07;97901.02;619754;229;65419;-73
2022/03/17 02:58:23;;;;;;;;;;;;;;;26.11;62.40;97902.11;619742;229;67041;-73
2022/03/17 03:00:51;;;;;;;;;;;;;;;26.10;62.80;97908.57;619732;229;66994;-73
2022/03/17 03:03:18;;;;;;;;;;;;;;;26.09;64.18;97901.59;619776;229;63067;-72
2022/03/17 03:05:46;;;;;;;;;;;;;;;26.08;62.85;97906.17;619778;229;65093;-73
2022/03/17 03:08:14;;;;;;;;;;;;;;;26.08;64.27;97908.05;619751;229;64798;-73
2022/03/17 03:10:43;;;;;;;;;;;;;;;26.07;64.18;97911.83;619694;229;65350;-72
2022/03/17 03:13:11;;;;;;;;;;;;;;;26.06;63.72;97918.31;619729;229;67076;-72
2022/03/17 03:15:38;;;;;;;;;;;;;;;26.04;63.75;97910.50;619776;229;66891;-72
2022/03/17 03:18:06;;;;;;;;;;;;;;;26.05;63.21;97911.30;619717;229;65129;-72
2022/03/17 03:20:33;;;;;;;;;;;;;;;26.04;63.89;97921.28;619732;229;67057;-72
2022/03/17 03:23:01;;;;;;;;;;;;;;;26.05;63.71;97920.18;619696;229;66844;-72
2022/03/17 03:25:28;;;;;;;;;;;;;;;26.04;63.73;97928.56;619735;229;62982;-72
2022/03/17 03:27:56;;;;;;;;;;;;;;;26.03;63.58;97929.66;619782;229;64816;-72
2022/03/17 03:30:23;;;;;;;;;;;;;;;26.02;62.67;97931.52;619749;229;65498;-72
2022/03/17 03:32:51;;;;;;;;;;;;;;;26.01;63.23;97924.54;619730;229;64935;-73
2022/03/17 03:38:04;;;;;;;;;;;;;;;26.00;62.45;97931.03;619701;229;67300;-72
2022/03/17 03:40:31;;;;;;;;;;;;;;;25.99;63.83;97929.40;619697;229;65143;-71
2022/03/17 03:42:59;;;;;;;;;;;;;;;25.98;62.38;97932.39;619787;229;67082;-72
2022/03/17 03:45:26;;;;;;;;;;;;;;;25.99;62.70;97933.98;619728;229;67006;-72
2022/03/17 03:47:54;;;;;;;;;;;;;;;25.98;63.85;97929.70;619721;229;65387;-72
2022/03/17 03:50:21;;;;;;;;;;;;;;;25.97;61.73;97938.84;619686;229;64776;-72
2022/03/17 03:52:49;;;;;;;;;;;;;;;25.96;62.45;97934.55;619748;229;65557;-72
2022/03/17 03:55:16;;;;;;;;;;;;;;;25.96;62.29;97937.25;619793;229;63975;-72
2022/03/17 03:57:46;;;;;;;;;;;;;;;25.95;63.46;97941.03;619771;229;64236;-72
2022/03/17 04:02:52;;;;;;;;;;;;;;;25.91;63.85;97944.27;619709;229;65131;-73
2022/03/17 04:05:37;;;;;;;;;;;;;;;25.90;63.24;97942.66;619743;229;65141;-73
2022/03/17 04:07:52;;;;;;;;;;;;;;;25.90;63.78;97953.44;619071;229;64476;-73
2022/03/17 04:10:20;;;;;;;;;;;;;;;25.89;63.82;97954.53;619790;229;65365;-73
2022/03/17 04:12:47;;;;;;;;;;;;;;;25.88;63.85;97963.67;619735;229;67039;-73
2022/03/17 04:15:15;;;;;;;;;;;;;;;25.86;63.55;97960.48;619713;229;66773;-73
2022/03/17 04:17:43;;;;;;;;;;;;;;;25.88;64.30;97954.80;619745;229;63038;-73
2022/03/17 04:20:11;;;;;;;;;;;;;;;25.86;62.74;97960.48;619732;229;64863;-73
2022/03/17 04:22:38;;;;;;;;;;;;;;;25.86;64.18;97971.25;619779;229;67101;-72
2022/03/17 04:25:06;;;;;;;;;;;;;;;25.85;63.01;97974.21;619720;229;65364;-73
2022/03/17 04:27:33;;;;;;;;;;;;;;;25.85;62.71;97977.70;619719;229;67090;-73
2022/03/17 04:30:01;;;;;;;;;;;;;;;25.84;61.31;97986.08;619734;229;66967;-73
2022/03/17 04:32:28;;;;;;;;;;;;;;;25.83;63.56;97990.64;619738;229;65451;-73
2022/03/17 04:34:56;;;;;;;;;;;;;;;25.84;63.93;97992.27;619759;229;67165;-73
2022/03/17 04:37:23;;;;;;;;;;;;;;;25.83;63.19;98000.58;619761;229;66823;-73
2022/03/17 04:39:51;;;;;;;;;;;;;;;25.81;64.89;97998.18;618335;229;63899;-73
2022/03/17 04:42:18;;;;;;;;;;;;;;;25.80;62.22;97991.16;617493;230;64832;-73
2022/03/17 04:44:46;;;;;;;;;;;;;;;25.80;63.00;98001.94;617531;230;64370;-73
2022/03/17 04:47:15;;;;;;;;;;;;;;;25.79;64.69;98003.03;617515;230;63033;-73
2022/03/17 04:49:43;;;;;;;;;;;;;;;25.78;63.29;98005.98;617532;230;67091;-74
2022/03/17 04:54:56;;;;;;;;;;;;;;;25.78;63.31;98012.20;617511;230;66457;-72
2022/03/17 04:57:24;;;;;;;;;;;;;;;25.77;63.79;98015.16;617523;230;67321;-72
2022/03/17 04:59:52;;;;;;;;;;;;;;;25.77;63.29;98026.73;617474;230;64821;-71
2022/03/17 05:02:19;;;;;;;;;;;;;;;25.76;63.13;98035.10;617548;227;65114;-72
2022/03/17 05:04:47;;;;;;;;;;;;;;;25.75;63.52;98033.47;617461;230;67473;-72
2022/03/17 05:07:14;;;;;;;;;;;;;;;25.74;63.79;98032.67;617447;230;66874;-72
2022/03/17 05:09:42;;;;;;;;;;;;;;;25.73;64.67;98033.77;617493;230;65198;-72
2022/03/17 05:12:10;;;;;;;;;;;;;;;25.72;62.27;98029.45;617510;230;66784;-72
2022/03/17 05:14:37;;;;;;;;;;;;;;;25.71;60.09;98030.54;617518;230;66909;-73
2022/03/17 05:17:05;;;;;;;;;;;;;;;25.69;62.44;98033.49;617531;230;65350;-73
2022/03/17 05:19:34;;;;;;;;;;;;;;;25.71;63.98;98032.44;617523;230;67357;-73
2022/03/17 05:22:02;;;;;;;;;;;;;;;25.70;63.54;98031.63;617474;230;64841;-73
2022/03/17 05:24:33;;;;;;;;;;;;;;;25.69;63.33;98041.58;617520;229;65187;-74
2022/03/17 05:27:03;;;;;;;;;;;;;;;25.67;63.86;98041.06;617420;228;49026;-73
2022/03/17 05:29:30;;;;;;;;;;;;;;;25.69;61.20;98046.16;617538;230;66996;-73
2022/03/17 05:31:58;;;;;;;;;;;;;;;25.69;64.97;98049.65;617549;230;63910;-73
2022/03/17 05:34:25;;;;;;;;;;;;;;;25.67;65.67;98051.00;617491;230;66850;-72
2022/03/17 05:36:53;;;;;;;;;;;;;;;25.67;64.34;98059.08;617530;230;66785;-73
2022/03/17 05:39:20;;;;;;;;;;;;;;;25.67;64.95;98065.30;617536;229;65360;-72
2022/03/17 05:41:48;;;;;;;;;;;;;;;25.67;63.80;98067.98;617418;230;64883;-72
2022/03/17 05:44:15;;;;;;;;;;;;;;;25.68;64.47;98074.17;617527;230;64898;-73
2022/03/17 05:46:43;;;;;;;;;;;;;;;25.68;64.81;98083.05;617554;230;65089;-73
2022/03/17 05:49:10;;;;;;;;;;;;;;;25.68;65.16;98077.66;617539;227;67029;-73
2022/03/17 05:51:39;;;;;;;;;;;;;;;25.70;65.14;98082.78;617497;230;67083;-72
2022/03/17 05:54:07;;;;;;;;;;;;;;;25.71;64.68;98083.58;617549;230;65141;-73
2022/03/17 05:56:35;;;;;;;;;;;;;;;25.71;64.33;98081.69;617568;230;67021;-73
2022/03/17 05:59:03;;;;;;;;;;;;;;;25.72;64.04;98090.57;617529;230;66583;-73
2022/03/17 06:01:32;;;;;;;;;;;;;;;25.73;64.96;98087.61;617540;228;45360;-73
2022/03/17 06:04:00;;;;;;;;;;;;;;;25.73;64.47;98098.38;617549;230;64791;-73
2022/03/17 06:06:27;;;;;;;;;;;;;;;25.75;63.99;98092.70;617515;230;65147;-73
2022/03/17 06:08:55;;;;;;;;;;;;;;;25.75;64.08;98095.40;617565;230;63053;-73
2022/03/17 06:11:22;;;;;;;;;;;;;;;25.75;64.51;98104.27;617550;230;65707;-73
2022/03/17 06:13:50;;;;;;;;;;;;;;;25.76;64.78;98100.52;617492;230;64832;-73
2022/03/17 06:16:19;;;;;;;;;;;;;;;25.78;64.07;98114.52;617523;230;63025;-73
2022/03/17 06:18:47;;;;;;;;;;;;;;;25.78;64.24;98114.52;617500;230;67040;-73
2022/03/17 06:21:15;;;;;;;;;;;;;;;25.80;63.76;98125.00;617455;230;66556;-73
2022/03/17 06:23:47;;;;;;;;;;;;;;;25.80;63.93;98125.80;617527;230;65365;-73
2022/03/17 06:26:12;;;;;;;;;;;;;;;25.82;63.88;98130.92;617461;228;66355;-73
2022/03/17 06:28:39;;;;;;;;;;;;;;;25.83;64.10;98133.35;617249;230;66880;-74
2022/03/17 06:31:07;;;;;;;;;;;;;;;25.83;62.96;98138.73;617549;230;65208;-73
2022/03/17 06:33:34;;;;;;;;;;;;;;;25.85;64.23;98147.36;617583;230;67162;-73
2022/03/17 06:36:02;;;;;;;;;;;;;;;25.86;62.03;98143.59;617577;230;66665;-73
2022/03/17 06:38:34;;;;;;;;;;;;;;;25.88;63.73;98143.30;617494;229;65350;-73
2022/03/17 06:40:59;;;;;;;;;;;;;;;25.90;63.46;98149.23;617439;228;65236;-73
2022/03/17 06:43:26;;;;;;;;;;;;;;;25.90;60.08;98152.72;617555;230;66606;-73
2022/03/17 06:45:54;;;;;;;;;;;;;;;25.92;62.69;98152.46;617512;230;65536;-73
2022/03/17 06:48:21;;;;;;;;;;;;;;;25.93;63.13;98153.27;617599;230;67047;-74
2022/03/17 06:50:49;;;;;;;;;;;;;;;25.95;63.31;98157.30;617522;227;65720;-73
2022/03/17 06:53:16;;;;;;;;;;;;;;;25.97;62.93;98155.11;617527;229;63021;-74
2022/03/17 06:55:44;;;;;;;;;;;;;;;25.97;62.91;98160.49;617335;230;64854;-74
2022/03/17 06:58:11;;;;;;;;;;;;;;;25.98;62.59;98164.02;617520;230;67759;-73
2022/03/17 07:00:39;;;;;;;;;;;;;;;25.99;62.30;98161.03;616925;230;65376;-77
2022/03/17 07:03:06;;;;;;;;;;;;;;;26.02;61.68;98168.55;617454;229;67354;-68
2022/03/17 07:05:33;;;;;;;;;;;;;;;26.00;61.78;98159.97;617416;230;67024;-76
2022/03/17 07:08:01;;;;;;;;;;;;;;;26.01;62.50;98168.84;617272;227;65203;-76
2022/03/17 07:10:29;;;;;;;;;;;;;;;26.02;62.41;98167.75;617329;230;67256;-73
2022/03/17 07:12:57;;;;;;;;;;;;;;;26.04;62.48;98176.38;617535;230;64676;-73
2022/03/17 07:15:28;;;;;;;;;;;;;;;26.06;62.52;98176.91;617269;230;63221;-69
2022/03/17 07:18:03;;;;;;;;;;;;;;;26.07;63.37;98173.92;610715;232;37358;-68
2022/03/17 07:20:31;;;;;;;;;;;;;;;26.09;61.77;98184.44;611016;232;67217;-67
2022/03/17 07:22:59;;;;;;;;;;;;;;;26.10;61.10;98181.45;611864;232;65003;-65
2022/03/17 07:25:27;;;;;;;;;;;;;;;26.10;60.88;98186.84;611963;232;67141;-70
2022/03/17 07:27:55;;;;;;;;;;;;;;;26.13;60.86;98186.28;612014;232;67053;-65
2022/03/17 07:30:23;;;;;;;;;;;;;;;26.14;62.24;98192.50;611871;232;65485;-68
2022/03/17 07:33:03;;;;;;;;;;;;;;;26.17;61.63;98186.56;611902;232;67366;-64
2022/03/17 07:35:28;;;;;;;;;;;;;;;26.18;62.04;98182.77;610697;231;66886;-64
2022/03/17 07:37:58;;;;;;;;;;;;;;;26.18;60.93;98193.55;610736;232;65308;-65
2022/03/17 07:40:26;;;;;;;;;;;;;;;26.21;61.68;98197.58;612039;232;66722;-73
2022/03/17 07:42:53;;;;;;;;;;;;;;;26.17;61.22;98197.33;607608;232;66858;-74
2022/03/17 07:45:23;;;;;;;;;;;;;;;26.18;62.00;98200.83;612016;231;45732;-70
2022/03/17 07:47:52;;;;;;;;;;;;;;;26.16;62.06;98203.78;608450;231;49023;-64
2022/03/17 07:50:20;;;;;;;;;;;;;;;26.17;58.24;98197.33;611963;232;67377;-63
2022/03/17 07:52:47;;;;;;;;;;;;;;;26.16;55.97;98201.09;611968;232;65241;-75
2022/03/17 07:55:17;;;;;;;;;;;;;;;26.28;59.46;98206.98;611980;232;66734;-76
2022/03/17 07:57:44;;;;;;;;;;;;;;;26.30;60.21;98210.21;611859;232;65558;-77
2022/03/17 08:00:12;;;;;;;;;;;;;;;26.32;60.36;98210.72;609677;232;65142;-75
2022/03/17 08:02:42;;;;;;;;;;;;;;;26.33;60.27;98206.95;604856;232;66702;-77
2022/03/17 08:05:11;;;;;;;;;;;;;;;26.37;60.79;98217.18;611696;232;64213;-75
2022/03/17 08:07:39;;;;;;;;;;;;;;;26.38;60.92;98213.39;611939;232;62982;-66
2022/03/17 08:10:06;;;;;;;;;;;;;;;26.32;60.35;98215.31;611795;232;64487;-73
2022/03/17 08:12:34;;;;;;;;;;;;;;;26.32;60.14;98220.70;611895;232;66831;-73
2022/03/17 08:15:02;;;;;;;;;;;;;;;26.32;60.35;98221.50;611969;232;65412;-66
2022/03/17 08:17:30;;;;;;;;;;;;;;;26.30;61.37;98220.98;619091;228;64564;-73
2022/03/17 08:19:57;;;;;;;;;;;;;;;26.22;54.65;98215.34;621111;228;64540;-63
2022/03/17 08:22:27;;;;;;;;;;;;;;;26.31;58.18;98219.09;621224;228;65402;-72
2022/03/17 08:24:54;;;;;;;;;;;;;;;26.32;59.14;98223.39;621055;228;64402;-73
2022/03/17 08:27:22;;;;;;;;;;;;;;;26.35;58.21;98218.27;621177;228;64201;-73
2022/03/17 08:29:49;;;;;;;;;;;;;;;26.37;59.01;98214.48;621237;228;65351;-73
2022/03/17 08:32:17;;;;;;;;;;;;;;;26.38;58.89;98221.48;621074;228;66881;-74
2022/03/17 08:34:45;;;;;;;;;;;;;;;26.39;59.51;98217.72;621057;228;64868;-74
2022/03/17 08:37:12;;;;;;;;;;;;;;;26.39;60.02;98225.80;621179;228;63066;-72
2022/03/17 08:39:40;;;;;;;;;;;;;;;26.39;59.34;98223.11;616471;228;67165;-75
2022/03/17 08:42:07;;;;;;;;;;;;;;;26.40;61.64;98227.41;621254;228;66575;-71
2022/03/17 08:44:35;;;;;;;;;;;;;;;26.41;61.71;98227.14;621230;228;64974;-77
2022/03/17 08:49:48;;;;;;;;;;;;;;;26.42;61.52;98226.05;621170;228;64645;-73
2022/03/17 08:52:15;;;;;;;;;;;;;;;26.43;61.52;98226.84;621264;228;63069;-74
2022/03/17 08:54:44;;;;;;;;;;;;;;;26.42;62.45;98231.44;621131;228;66534;-75
2022/03/17 08:57:12;;;;;;;;;;;;;;;26.43;61.39;98226.84;621249;228;65491;-76
2022/03/17 08:59:40;;;;;;;;;;;;;;;26.44;61.01;98231.17;621144;228;63209;-74
2022/03/17 09:02:11;;;;;;;;;;;;;;;26.45;60.63;98230.08;621005;228;64835;-75
2022/03/17 09:04:38;;;;;;;;;;;;;;;26.45;61.58;98233.58;619530;228;64717;-76
2022/03/17 09:07:05;;;;;;;;;;;;;;;26.45;61.47;98225.48;617405;228;63003;-74
2022/03/17 09:09:34;;;;;;;;;;;;;;;26.45;62.15;98230.88;618897;228;64457;-76
2022/03/17 09:12:07;;;;;;;;;;;;;;;26.45;61.54;98230.88;619695;228;67166;-74
2022/03/17 09:14:32;;;;;;;;;;;;;;;26.47;60.88;98241.39;621176;228;62991;-76
2022/03/17 09:17:01;;;;;;;;;;;;;;;26.46;60.70;98232.48;621215;228;64166;-76
2022/03/17 09:19:29;;;;;;;;;;;;;;;26.48;61.29;98235.71;621181;228;67742;-76
2022/03/17 09:21:56;;;;;;;;;;;;;;;26.49;62.25;98239.20;621267;228;65385;-73
2022/03/17 09:24:26;;;;;;;;;;;;;;;26.49;60.48;98236.51;621218;228;67511;-73
2022/03/17 09:26:53;;;;;;;;;;;;;;;26.51;61.80;98237.08;621247;228;67061;-74
2022/03/17 09:29:21;;;;;;;;;;;;;;;26.52;60.77;98244.10;621259;228;65341;-75
2022/03/17 09:31:49;;;;;;;;;;;;;;;26.51;59.92;98242.47;621193;228;66755;-65
2022/03/17 09:34:16;;;;;;;;;;;;;;;26.53;60.96;98245.70;621248;228;64655;-61
2022/03/17 09:36:44;;;;;;;;;;;;;;;26.54;60.86;98244.61;621219;228;65671;-73
2022/03/17 09:41:57;;;;;;;;;;;;;;;26.50;62.17;98248.92;621303;228;66695;-70
2022/03/17 09:44:24;;;;;;;;;;;;;;;26.47;61.43;98246.78;621180;228;65302;-73
2022/03/17 09:46:55;;;;;;;;;;;;;;;26.44;60.98;98248.14;621146;228;66747;-71
2022/03/17 09:49:23;;;;;;;;;;;;;;;26.45;60.28;98251.64;621105;228;67032;-71
2022/03/17 09:51:54;;;;;;;;;;;;;;;26.42;59.98;98242.22;618265;228;63156;-72
2022/03/17 09:54:22;;;;;;;;;;;;;;;26.43;59.52;98243.81;610561;229;67005;-69
2022/03/17 09:56:51;;;;;;;;;;;;;;;26.42;59.28;98247.61;609253;233;66783;-71
2022/03/17 09:59:19;;;;;;;;;;;;;;;26.41;59.14;98251.40;609287;233;65453;-70
2022/03/17 10:01:46;;;;;;;;;;;;;;;26.43;59.22;98253.80;609205;233;66708;-72
2022/03/17 10:04:15;;;;;;;;;;;;;;;26.43;58.68;98259.19;609241;233;66809;-73
2022/03/17 10:06:43;;;;;;;;;;;;;;;26.43;58.78;98253.80;609148;233;65538;-74
2022/03/17 10:09:11;;;;;;;;;;;;;;;26.44;58.07;98268.91;609238;233;64463;-73
2022/03/17 10:11:40;;;;;;;;;;;;;;;26.43;58.22;98264.58;609141;233;64717;-74
2022/03/17 10:14:08;;;;;;;;;;;;;;;26.44;58.34;98272.41;609138;230;65318;-73
2022/03/17 10:16:37;;;;;;;;;;;;;;;26.44;57.25;98268.91;609077;232;67084;-69
2022/03/17 10:19:06;;;;;;;;;;;;;;;26.43;57.13;98270.77;609160;233;64706;-70
2022/03/17 10:21:34;;;;;;;;;;;;;;;26.45;57.56;98275.90;609247;233;63257;-70
2022/03/17 10:24:02;;;;;;;;;;;;;;;26.44;57.36;98280.48;609270;233;64333;-69
2022/03/17 10:26:38;;;;;;;;;;;;;;;26.44;58.49;98275.09;609291;230;66864;-71
2022/03/17 10:29:07;;;;;;;;;;;;;;;26.45;56.68;98267.81;609318;233;63230;-68
2022/03/17 10:31:51;;;;;;;;;;;;;;;26.44;57.58;98272.41;609343;233;66871;-68
2022/03/17 10:34:23;;;;;;;;;;;;;;;26.44;57.18;98277.80;609299;233;66568;-69
2022/03/17 10:36:51;;;;;;;;;;;;;;;26.44;56.89;98280.48;609212;233;65692;-69
2022/03/17 10:39:19;;;;;;;;;;;;;;;26.46;57.60;98285.59;609313;233;66591;-71
2022/03/17 10:41:48;;;;;;;;;;;;;;;26.45;57.24;98281.29;609228;233;66892;-67
2022/03/17 10:44:16;;;;;;;;;;;;;;;26.46;57.32;98285.59;609348;233;65566;-72
2022/03/17 10:47:01;;;;;;;;;;;;;;;26.45;56.92;98284.79;609340;233;64097;-73
2022/03/17 10:49:26;;;;;;;;;;;;;;;26.47;56.08;98295.30;609205;233;64463;-73
2022/03/17 10:51:57;;;;;;;;;;;;;;;26.47;57.07;98292.61;609370;233;46781;-72
2022/03/17 10:54:24;;;;;;;;;;;;;;;26.45;57.13;98297.46;609279;233;66615;-72
2022/03/17 10:56:56;;;;;;;;;;;;;;;26.46;56.84;98285.59;609264;233;66257;-73
2022/03/17 10:59:25;;;;;;;;;;;;;;;26.47;55.90;98295.30;609171;230;65267;-72
2022/03/17 11:01:53;;;;;;;;;;;;;;;26.47;55.80;98298.00;609517;229;65564;-73
2022/03/17 11:04:21;;;;;;;;;;;;;;;26.46;57.33;98301.77;609217;233;65656;-73
2022/03/17 11:06:48;;;;;;;;;;;;;;;26.46;56.65;98302.56;609306;233;65409;-73
2022/03/17 11:09:18;;;;;;;;;;;;;;;26.47;56.76;98306.09;609243;233;64528;-72
2022/03/17 11:11:47;;;;;;;;;;;;;;;26.47;56.27;98300.70;609223;233;66589;-72
2022/03/17 11:14:15;;;;;;;;;;;;;;;26.45;56.13;98292.88;609337;233;63127;-71
2022/03/17 11:16:46;;;;;;;;;;;;;;;26.53;50.86;98288.83;619311;228;64360;-74
2022/03/17 11:19:15;;;;;;;;;;;;;;;26.61;50.68;98285.56;614432;231;64665;-72
2022/03/17 11:21:49;;;;;;;;;;;;;;;26.66;50.93;98298.22;614423;231;63119;-71
2022/03/17 11:24:20;;;;;;;;;;;;;;;26.70;51.23;98297.37;614295;231;65743;-72
2022/03/17 11:26:49;;;;;;;;;;;;;;;26.72;52.04;98300.59;614420;231;66610;-74
2022/03/17 11:29:18;;;;;;;;;;;;;;;26.74;51.89;98300.34;614468;231;65582;-72
2022/03/17 11:31:56;;;;;;;;;;;;;;;26.77;51.88;98291.69;613447;231;67212;-73
2022/03/17 11:34:38;;;;;;;;;;;;;;;26.79;52.51;98300.28;614207;231;66578;-72
2022/03/17 11:37:23;;;;;;;;;;;;;;;26.81;52.09;98300.02;616561;228;62972;-72
2022/03/17 11:39:51;;;;;;;;;;;;;;;26.81;52.74;98297.32;616703;228;66762;-72
2022/03/17 11:42:26;;;;;;;;;;;;;;;26.83;53.03;98295.96;616044;230;66557;-72
2022/03/17 11:44:55;;;;;;;;;;;;;;;26.84;53.79;98302.16;608421;230;66270;-71
2022/03/17 11:47:29;;;;;;;;;;;;;;;26.85;53.88;98303.79;616814;230;67211;-71
2022/03/17 11:49:56;;;;;;;;;;;;;;;26.85;53.48;98309.98;617006;230;64937;-69
2022/03/17 11:52:24;;;;;;;;;;;;;;;26.86;54.50;98302.69;616958;230;63057;-68
2022/03/17 11:54:53;;;;;;;;;;;;;;;26.83;58.10;98303.25;616973;230;67056;-67
2022/03/17 11:57:24;;;;;;;;;;;;;;;26.77;57.54;98305.17;616021;230;43278;-69
2022/03/17 11:59:58;;;;;;;;;;;;;;;26.73;57.42;98302.20;616967;230;65372;-74
2022/03/17 12:02:29;;;;;;;;;;;;;;;26.75;53.21;98294.65;617044;230;67881;-73
2022/03/17 12:04:58;;;;;;;;;;;;;;;26.79;54.40;98301.12;617013;230;64899;-71
2022/03/17 12:07:26;;;;;;;;;;;;;;;26.82;53.92;98304.31;615853;230;65375;-69
2022/03/17 12:09:55;;;;;;;;;;;;;;;26.84;54.37;98312.95;616935;230;67099;-72
2022/03/17 12:12:25;;;;;;;;;;;;;;;26.85;53.21;98298.39;617017;230;66714;-70
2022/03/17 12:14:54;;;;;;;;;;;;;;;26.87;53.29;98304.30;616757;230;63281;-70
2022/03/17 12:17:25;;;;;;;;;;;;;;;26.90;52.37;98312.66;617982;227;67925;-70
2022/03/17 12:20:07;;;;;;;;;;;;;;;26.93;52.72;98303.20;619076;229;67560;-70
2022/03/17 12:22:39;;;;;;;;;;;;;;;26.96;53.25;98310.73;619110;229;65162;-70
2022/03/17 12:25:20;;;;;;;;;;;;;;;26.98;54.07;98311.23;619058;229;67244;-71
2022/03/17 12:28:04;;;;;;;;;;;;;;;26.95;54.32;98317.20;619084;229;64971;-72
2022/03/17 12:30:30;;;;;;;;;;;;;;;26.98;53.17;98308.54;619165;229;65480;-70
2022/03/17 12:33:06;;;;;;;;;;;;;;;27.00;54.30;98311.77;619164;229;64936;-68
2022/03/17 12:35:31;;;;;;;;;;;;;;;27.01;54.08;98318.80;623161;227;64784;-69
2022/03/17 12:38:03;;;;;;;;;;;;;;;27.03;53.54;98318.50;624561;227;65122;-70
2022/03/17 12:40:35;;;;;;;;;;;;;;;27.04;53.66;98320.94;624625;227;66901;-71
2022/03/17 12:43:03;;;;;;;;;;;;;;;27.05;54.01;98319.84;624587;227;64938;-70
2022/03/17 12:45:31;;;;;;;;;;;;;;;27.08;54.19;98326.57;624286;227;62965;-71
2022/03/17 12:47:58;;;;;;;;;;;;;;;27.07;55.33;98328.47;624599;227;65082;-66
2022/03/17 12:50:28;;;;;;;;;;;;;;;27.07;55.66;98336.56;624391;227;48078;-72
2022/03/17 12:52:57;;;;;;;;;;;;;;;27.08;55.26;98335.47;624631;227;62638;-67
2022/03/17 12:55:24;;;;;;;;;;;;;;;27.08;54.86;98334.67;624657;227;64851;-70
2022/03/17 12:57:51;;;;;;;;;;;;;;;27.07;55.23;98339.27;624619;227;64764;-69
2022/03/17 13:00:23;;;;;;;;;;;;;;;27.10;53.42;98337.90;624592;226;63093;-61
2022/03/17 13:02:54;;;;;;;;;;;;;;;27.09;53.31;98342.49;624665;227;65020;-65
2022/03/17 13:08:09;;;;;;;;;;;;;;;27.10;54.37;98338.70;624610;227;65356;-67
2022/03/17 13:16:09;;;;;;;;;;;;;;;27.07;51.91;98355.45;623902;227;66481;-62
2022/03/17 13:18:41;;;;;;;;;;;;;;;27.09;53.66;98345.19;621069;228;67194;-65
2022/03/17 13:21:16;;;;;;;;;;;;;;;27.08;53.99;98346.26;621225;228;67120;-66
2022/03/17 13:23:44;;;;;;;;;;;;;;;27.10;53.66;98354.89;621186;228;63319;-65